Time;durP1;ratioP1;P1;durP2;ratioP2;P2;SDS_P1;SDS_P2;PMS_P1;PMS_P2;Temp;Humidity;BMP_temperature;BMP_pressure;BME280_temperature;BME280_humidity;BME280_pressure;Samples;Min_cycle;Max_cycle;Signal;HPM_P1;HPM_P2
2023/05/15 00:01:01;;;;;;;31.70;28.30;;;;;;;11.50;100.00;101453.06;4973386;28;20436;-75
2023/05/15 00:03:32;;;;;;;31.65;28.27;;;;;;;11.43;100.00;101455.28;4970930;28;20053;-73
2023/05/15 00:05:58;;;;;;;31.10;27.85;;;;;;;11.40;100.00;101455.50;4991096;28;20040;-75
2023/05/15 00:08:24;;;;;;;32.70;29.08;;;;;;;11.32;100.00;101441.16;4991361;28;20097;-75
2023/05/15 00:10:49;;;;;;;33.20;29.65;;;;;;;11.32;100.00;101443.78;4989920;28;20031;-75
2023/05/15 00:13:31;;;;;;;32.55;29.25;;;;;;;11.32;100.00;101441.16;4990021;28;20030;-75
2023/05/15 00:15:57;;;;;;;33.20;29.80;;;;;;;11.28;100.00;101446.63;4981434;28;20053;-75
2023/05/15 00:18:23;;;;;;;32.28;28.92;;;;;;;11.21;100.00;101450.63;4990025;28;20096;-75
2023/05/15 00:20:48;;;;;;;34.33;30.67;;;;;;;11.20;100.00;101438.38;4991906;28;20025;-75
2023/05/15 00:23:13;;;;;;;33.72;29.92;;;;;;;11.09;100.00;101440.91;4991305;28;20034;-75
2023/05/15 00:25:40;;;;;;;33.88;30.30;;;;;;;11.08;100.00;101446.25;5004973;28;20030;-75
2023/05/15 00:28:05;;;;;;;34.95;30.85;;;;;;;11.10;100.00;101432.03;4991571;28;20034;-75
2023/05/15 00:30:40;;;;;;;34.13;30.75;;;;;;;11.04;100.00;101435.09;4991555;28;20101;-75
2023/05/15 00:33:12;;;;;;;34.75;31.15;;;;;;;10.96;100.00;101445.28;4984634;28;20668;-75
2023/05/15 00:35:40;;;;;;;36.30;32.47;;;;;;;10.90;100.00;101427.28;4988565;28;20045;-75
2023/05/15 00:38:12;;;;;;;33.92;30.45;;;;;;;10.91;100.00;101428.97;4991205;28;20088;-75
2023/05/15 00:40:38;;;;;;;34.60;31.05;;;;;;;10.86;100.00;101433.69;4989187;28;20041;-73
2023/05/15 00:43:13;;;;;;;35.63;32.08;;;;;;;10.88;100.00;101421.28;4989435;28;20093;-73
2023/05/15 00:45:42;;;;;;;37.15;32.72;;;;;;;10.78;100.00;101425.44;4990264;28;20391;-75
2023/05/15 00:48:09;;;;;;;36.70;32.55;;;;;;;10.75;100.00;101423.00;4989860;28;20109;-75
2023/05/15 00:50:35;;;;;;;34.78;31.38;;;;;;;10.72;100.00;101431.94;4985032;28;20030;-75
2023/05/15 00:53:04;;;;;;;36.15;32.47;;;;;;;10.70;100.00;101422.47;4990358;28;20026;-75
2023/05/15 00:55:30;;;;;;;37.08;33.28;;;;;;;10.67;100.00;101423.50;4990347;28;20027;-75
2023/05/15 00:57:57;;;;;;;36.10;32.47;;;;;;;10.63;100.00;101420.22;5006522;28;20391;-75
2023/05/15 01:00:23;;;;;;;36.63;32.92;;;;;;;10.63;100.00;101422.00;4988761;28;20034;-74
2023/05/15 01:02:48;;;;;;;37.33;33.30;;;;;;;10.54;100.00;101418.19;4990167;28;20033;-75
2023/05/15 01:05:14;;;;;;;39.05;34.15;;;;;;;10.56;100.00;101421.56;4990387;28;20540;-75
2023/05/15 01:08:04;;;;;;;37.08;33.13;;;;;;;10.58;100.00;101414.44;4986626;28;20030;-75
2023/05/15 01:10:29;;;;;;;41.45;34.40;;;;;;;10.48;100.00;101418.59;4990910;28;20022;-75
2023/05/15 01:12:57;;;;;;;40.08;35.67;;;;;;;10.41;100.00;101412.06;4989653;28;20668;-75
2023/05/15 01:15:22;;;;;;;37.92;33.92;;;;;;;10.42;100.00;101418.16;4987840;28;20475;-76
2023/05/15 01:17:49;;;;;;;42.72;33.95;;;;;;;10.36;100.00;101409.69;4991342;28;20057;-75
2023/05/15 01:20:17;;;;;;;40.88;35.25;;;;;;;10.30;100.00;101423.22;4991252;28;20061;-75
2023/05/15 01:22:50;;;;;;;39.15;34.55;;;;;;;10.34;100.00;101413.34;4990116;28;20026;-75
2023/05/15 01:25:31;;;;;;;38.28;34.17;;;;;;;10.33;100.00;101416.94;4984837;28;20053;-75
2023/05/15 01:28:30;;;;;;;39.40;35.10;;;;;;;10.32;100.00;101420.50;4983329;28;20089;-75
2023/05/15 01:31:02;;;;;;;40.25;35.95;;;;;;;10.17;100.00;101414.41;4988724;28;20414;-75
2023/05/15 01:37:04;;;;;;;39.88;35.58;;;;;;;10.19;100.00;101411.69;4971189;28;20043;-75
2023/05/15 01:40:10;;;;;;;40.70;36.55;;;;;;;10.20;100.00;101421.25;4970303;28;20041;-75
2023/05/15 01:43:15;;;;;;;42.47;37.25;;;;;;;10.21;100.00;101407.19;4972841;28;20653;-75
2023/05/15 01:49:32;;;;;;;42.92;37.95;;;;;;;10.12;100.00;101399.88;5001391;28;20034;-75
2023/05/15 01:56:28;;;;;;;43.80;37.95;;;;;;;10.12;100.00;101395.44;4989247;28;20046;-73
2023/05/15 01:59:47;;;;;;;42.67;38.10;;;;;;;10.11;100.00;101392.91;4998497;28;20102;-75
2023/05/15 02:15:37;;;;;;;45.40;39.47;;;;;;;9.93;100.00;101390.50;5001134;28;20173;-74
2023/05/15 02:45:42;;;;;;;51.85;45.33;;;;;;;9.73;100.00;101409.28;5013506;28;20049;-75
2023/05/15 04:21:09;;;;;;;66.55;52.20;;;;;;;9.10;100.00;101372.81;4918983;28;20233;-73
2023/05/15 04:23:43;;;;;;;68.57;54.50;;;;;;;9.05;100.00;101380.13;5008639;28;20470;-75
2023/05/15 04:26:16;;;;;;;67.32;54.70;;;;;;;9.07;100.00;101373.00;5019232;28;20033;-75
2023/05/15 04:28:49;;;;;;;75.28;57.25;;;;;;;9.02;100.00;101377.69;5029625;28;20030;-74
2023/05/15 04:31:21;;;;;;;71.20;55.58;;;;;;;9.10;100.00;101383.34;5011014;28;20103;-74
2023/05/15 05:44:56;;;;;;;69.13;53.00;;;;;;;9.87;100.00;101438.19;4810775;29;20098;-75
2023/05/15 05:47:58;;;;;;;66.03;50.20;;;;;;;9.81;100.00;101443.81;4806270;29;20050;-75
2023/05/15 05:51:16;;;;;;;;;;;;;;;;;;;;;
2023/05/15 05:54:18;;;;;;;65.25;49.08;;;;;;;9.93;100.00;101444.84;4806564;29;20050;-76
2023/05/15 06:20:36;;;;;;;47.10;40.78;;;;;;;10.60;100.00;101427.47;4933708;29;20043;-75
2023/05/15 06:23:54;;;;;;;45.28;40.38;;;;;;;10.64;100.00;101435.06;4932086;29;20122;-73
2023/05/15 06:29:55;;;;;;;44.95;39.13;;;;;;;10.88;100.00;101437.06;4913976;29;20036;-75
2023/05/15 06:32:23;;;;;;;44.40;39.58;;;;;;;10.85;100.00;101434.63;4912650;29;20035;-75
2023/05/15 06:35:05;;;;;;;;;;;;;;;;;;;;;
2023/05/15 06:37:50;;;;;;;42.95;38.33;;;;;;;10.79;100.00;101432.38;4895026;29;20036;-75
2023/05/15 06:40:26;;;;;;;42.13;37.65;;;;;;;10.96;100.00;101440.88;4914071;29;20044;-75
2023/05/15 06:42:52;;;;;;;43.13;38.40;;;;;;;11.07;100.00;101427.00;4930756;28;20460;-75
2023/05/15 06:45:40;;;;;;;42.25;37.75;;;;;;;11.19;100.00;101431.44;4937465;28;20051;-73
2023/05/15 06:48:14;;;;;;;44.83;39.05;;;;;;;11.36;99.84;101426.84;4930537;29;20062;-74
2023/05/15 06:51:05;;;;;;;43.65;39.03;;;;;;;11.51;99.52;101423.97;4931806;29;20054;-75
2023/05/15 06:53:34;;;;;;;44.80;39.92;;;;;;;11.44;98.17;101427.16;4998996;28;20131;-75
2023/05/15 06:56:02;;;;;;;44.40;39.83;;;;;;;11.64;97.61;101425.78;5016283;28;20489;-76
2023/05/15 06:58:27;;;;;;;45.67;40.88;;;;;;;11.77;96.77;101426.63;5030783;28;20025;-76
2023/05/15 07:00:53;;;;;;;45.83;40.97;;;;;;;11.77;96.33;101431.91;5029295;28;20027;-76
2023/05/15 07:03:18;;;;;;;45.88;41.28;;;;;;;11.81;95.73;101434.25;5030843;28;20014;-73
2023/05/15 07:05:44;;;;;;;46.38;41.10;;;;;;;11.88;95.94;101430.22;5028496;28;20022;-76
2023/05/15 07:08:09;;;;;;;43.58;38.92;;;;;;;12.11;93.62;101425.13;5029300;28;20028;-76
2023/05/15 07:10:35;;;;;;;43.47;38.42;;;;;;;12.40;92.67;101431.78;5026363;28;20067;-76
2023/05/15 07:13:06;;;;;;;43.42;38.88;;;;;;;12.65;91.03;101425.56;5027787;28;20058;-76
2023/05/15 07:15:52;;;;;;;47.50;42.63;;;;;;;12.79;89.70;101430.66;5025112;28;20029;-77
2023/05/15 07:18:19;;;;;;;45.03;40.40;;;;;;;12.77;88.19;101429.94;5012604;28;20359;-75
2023/05/15 07:20:50;;;;;;;45.55;40.80;;;;;;;12.99;88.21;101428.34;5011738;28;20496;-75
2023/05/15 07:23:16;;;;;;;44.17;39.72;;;;;;;13.46;87.19;101427.44;5030535;28;20482;-75
2023/05/15 07:25:41;;;;;;;46.50;41.60;;;;;;;13.88;84.95;101427.72;5027589;28;20026;-76
2023/05/15 07:28:10;;;;;;;45.67;40.92;;;;;;;14.21;84.50;101430.34;5011139;28;20017;-75
2023/05/15 07:30:35;;;;;;;45.65;41.03;;;;;;;14.39;83.08;101428.84;5011444;28;20045;-75
2023/05/15 07:33:02;;;;;;;44.38;39.95;;;;;;;14.59;82.55;101421.13;5011083;28;20084;-75
2023/05/15 07:35:27;;;;;;;45.00;40.42;;;;;;;14.99;80.48;101416.03;5018971;28;20029;-76
2023/05/15 07:37:52;;;;;;;46.00;41.00;;;;;;;15.32;76.39;101412.38;5031534;28;20052;-77
2023/05/15 07:40:22;;;;;;;47.17;42.22;;;;;;;15.19;74.78;101406.41;5029394;28;20060;-76
2023/05/15 07:42:50;;;;;;;48.28;43.30;;;;;;;15.54;75.11;101406.06;5023068;28;20033;-77
2023/05/15 07:45:16;;;;;;;47.42;42.35;;;;;;;15.66;72.83;101400.59;5025403;28;20452;-77
2023/05/15 07:47:45;;;;;;;48.45;43.55;;;;;;;15.71;73.67;101399.34;5030480;28;20029;-77
2023/05/15 07:50:10;;;;;;;48.33;43.35;;;;;;;15.87;73.43;101403.16;5008921;28;20091;-78
2023/05/15 07:52:36;;;;;;;50.80;45.60;;;;;;;15.94;72.50;101400.81;5029185;28;20022;-78
2023/05/15 07:55:03;;;;;;;48.97;43.87;;;;;;;15.99;74.08;101402.09;4989179;28;1160680;-79
2023/05/15 07:57:28;;;;;;;50.25;45.15;;;;;;;16.26;72.39;101395.31;5014188;28;20288;-77
2023/05/15 07:59:55;;;;;;;52.17;46.83;;;;;;;16.37;71.77;101397.00;5028246;28;20163;-76
2023/05/15 08:02:20;;;;;;;50.88;45.85;;;;;;;16.26;71.15;101401.47;5024938;28;20021;-76
2023/05/15 08:04:45;;;;;;;51.00;45.53;;;;;;;16.42;71.35;101397.47;5010650;28;20040;-76
2023/05/15 08:07:12;;;;;;;49.25;44.33;;;;;;;16.73;70.54;101401.69;5028119;28;20026;-76
2023/05/15 08:09:38;;;;;;;47.58;42.85;;;;;;;17.08;69.29;101400.28;5010631;28;20163;-76
2023/05/15 08:12:19;;;;;;;48.78;43.88;;;;;;;17.15;69.19;101398.72;5029348;28;20108;-76
2023/05/15 08:14:50;;;;;;;45.20;40.65;;;;;;;17.43;66.76;101395.19;5026760;28;20386;-76
2023/05/15 08:17:16;;;;;;;44.85;40.42;;;;;;;17.80;64.96;101397.88;5026660;28;20028;-76
2023/05/15 08:19:41;;;;;;;45.13;40.80;;;;;;;17.89;65.08;101401.47;5028978;28;20033;-76
2023/05/15 08:22:09;;;;;;;44.08;39.58;;;;;;;18.00;63.50;101398.63;5030878;28;20378;-76
2023/05/15 08:24:34;;;;;;;44.80;40.20;;;;;;;17.98;63.96;101400.59;5012046;28;20478;-76
2023/05/15 08:27:07;;;;;;;46.33;41.50;;;;;;;17.95;63.77;101403.53;5030144;28;20035;-76
2023/05/15 08:29:36;;;;;;;46.22;41.33;;;;;;;17.89;63.83;101395.31;5030813;28;20032;-76
2023/05/15 08:32:02;;;;;;;44.92;40.42;;;;;;;18.02;63.64;101395.84;5003584;28;20474;-76
2023/05/15 08:34:28;;;;;;;42.85;38.70;;;;;;;18.04;63.16;101400.03;4993649;28;20022;-76
2023/05/15 08:37:00;;;;;;;45.50;40.78;;;;;;;17.51;63.67;101389.97;5028723;28;20029;-78
2023/05/15 08:39:26;;;;;;;41.13;36.97;;;;;;;17.73;63.60;101393.28;5013213;28;20029;-78
2023/05/15 08:42:20;;;;;;;40.58;36.45;;;;;;;17.88;65.67;101398.97;5030608;28;20021;-76
2023/05/15 08:44:46;;;;;;;41.67;37.38;;;;;;;17.70;63.74;101391.78;5011842;28;20486;-76
2023/05/15 08:47:13;;;;;;;42.20;37.78;;;;;;;17.73;64.45;101390.63;5030147;28;20033;-75
2023/05/15 08:50:13;;;;;;;42.90;38.45;;;;;;;17.85;66.17;101402.75;5026599;28;20033;-75
2023/05/15 08:52:45;;;;;;;40.13;36.05;;;;;;;17.66;63.26;101389.50;5001528;28;20124;-74
2023/05/15 08:55:13;;;;;;;39.70;35.53;;;;;;;17.81;62.82;101390.72;5008873;28;20052;-75
2023/05/15 08:57:41;;;;;;;40.38;36.20;;;;;;;17.93;63.14;101394.03;5020819;28;20036;-75
2023/05/15 09:00:08;;;;;;;39.90;35.72;;;;;;;18.22;62.57;101383.22;5010809;28;20069;-75
2023/05/15 09:02:41;;;;;;;40.25;35.95;;;;;;;18.47;62.25;101393.16;5029030;28;20049;-74
2023/05/15 09:05:08;;;;;;;43.15;36.95;;;;;;;18.42;61.36;101384.78;5026837;28;20013;-75
2023/05/15 09:07:37;;;;;;;40.75;36.63;;;;;;;18.47;60.35;101388.66;5026014;28;20479;-75
2023/05/15 09:10:02;;;;;;;37.35;33.45;;;;;;;18.57;60.74;101391.25;5028774;28;20029;-74
2023/05/15 09:12:32;;;;;;;37.63;33.75;;;;;;;18.95;61.12;101389.28;5027067;28;20487;-75
2023/05/15 09:15:16;;;;;;;38.80;34.70;;;;;;;18.98;60.36;101389.81;5030319;28;20384;-75
2023/05/15 09:17:43;;;;;;;36.33;32.35;;;;;;;19.24;57.76;101384.53;5029209;28;20668;-75
2023/05/15 09:20:27;;;;;;;34.40;30.85;;;;;;;19.07;60.66;101380.03;5028978;28;20029;-75
2023/05/15 09:22:52;;;;;;;34.58;31.08;;;;;;;18.70;59.73;101375.75;5040472;28;20025;-75
2023/05/15 09:25:40;;;;;;;35.47;31.98;;;;;;;18.58;62.97;101390.28;5021925;28;20036;-75
2023/05/15 09:28:24;;;;;;;36.45;32.80;;;;;;;18.07;62.61;101386.41;5027093;28;20099;-75
2023/05/15 09:30:56;;;;;;;34.00;30.65;;;;;;;18.05;62.33;101385.72;5029104;28;20034;-75
2023/05/15 09:33:27;;;;;;;35.78;31.98;;;;;;;17.73;63.12;101387.97;5028751;28;20100;-74
2023/05/15 09:35:52;;;;;;;34.63;31.20;;;;;;;17.56;63.65;101394.84;5024146;28;20025;-75
2023/05/15 09:38:18;;;;;;;35.63;32.05;;;;;;;17.32;63.79;101392.69;5027468;28;20540;-74
2023/05/15 09:40:43;;;;;;;34.47;30.92;;;;;;;17.23;64.90;101388.25;5028236;28;20037;-74
2023/05/15 09:43:10;;;;;;;36.00;32.30;;;;;;;17.08;66.32;101390.50;5027145;28;20021;-75
2023/05/15 09:45:37;;;;;;;38.75;34.67;;;;;;;17.07;66.26;101393.28;5026202;28;20037;-74
2023/05/15 09:48:06;;;;;;;36.95;33.30;;;;;;;16.93;66.97;101386.59;5024911;28;20108;-76
2023/05/15 09:50:36;;;;;;;39.05;34.03;;;;;;;16.88;67.68;101399.47;5029599;28;20026;-74
2023/05/15 09:53:05;;;;;;;38.25;34.08;;;;;;;16.85;67.18;101395.28;5027836;28;20112;-75
2023/05/15 09:55:35;;;;;;;36.10;32.50;;;;;;;16.83;67.12;101397.25;5028989;28;20052;-74
2023/05/15 09:58:05;;;;;;;36.13;32.40;;;;;;;16.77;67.43;101397.78;5029302;28;20048;-74
2023/05/15 10:00:31;;;;;;;36.95;33.05;;;;;;;16.73;67.64;101396.38;5011849;28;20029;-74
2023/05/15 10:03:02;;;;;;;35.63;32.03;;;;;;;16.67;67.71;101399.59;5028704;28;20029;-74
2023/05/15 10:05:29;;;;;;;35.08;31.38;;;;;;;16.76;68.37;101392.59;5010315;28;20053;-74
2023/05/15 10:07:57;;;;;;;35.85;32.25;;;;;;;16.78;69.18;101399.47;5000297;28;20139;-74
2023/05/15 10:10:24;;;;;;;35.13;31.35;;;;;;;16.69;68.07;101394.16;5028773;28;20060;-73
2023/05/15 10:12:51;;;;;;;35.80;32.03;;;;;;;16.67;69.19;101396.09;5029010;28;20032;-74
2023/05/15 10:15:17;;;;;;;40.80;32.95;;;;;;;16.62;69.48;101409.78;5027505;28;20703;-74
2023/05/15 10:17:43;;;;;;;34.20;30.67;;;;;;;16.64;70.04;101404.31;5026370;28;20048;-75
2023/05/15 10:20:11;;;;;;;33.30;30.05;;;;;;;16.51;69.50;101412.56;5028024;28;20025;-75
2023/05/15 10:22:40;;;;;;;31.30;28.30;;;;;;;16.53;70.11;101408.78;5026409;28;20104;-75
2023/05/15 10:25:20;;;;;;;31.92;28.73;;;;;;;16.53;70.14;101406.13;5023661;28;20104;-74
2023/05/15 10:27:46;;;;;;;33.10;29.45;;;;;;;16.38;70.67;101401.34;5015896;28;20025;-76
2023/05/15 10:30:15;;;;;;;31.38;28.15;;;;;;;16.45;70.65;101406.00;5027657;28;20032;-75
2023/05/15 10:32:44;;;;;;;33.35;28.45;;;;;;;16.40;70.63;101407.38;5029053;28;20036;-75
2023/05/15 10:35:11;;;;;;;34.40;30.63;;;;;;;16.35;70.43;101404.28;5023443;28;20100;-76
2023/05/15 10:37:39;;;;;;;35.95;30.08;;;;;;;16.37;70.14;101411.13;5032252;28;20026;-75
2023/05/15 10:40:09;;;;;;;36.63;30.13;;;;;;;16.31;71.14;101411.69;5014272;28;20122;-75
2023/05/15 10:42:36;;;;;;;33.58;30.15;;;;;;;16.35;71.33;101412.25;5015620;28;20033;-76
2023/05/15 10:45:04;;;;;;;32.65;29.45;;;;;;;16.23;71.25;101408.88;4998738;28;20128;-75
2023/05/15 10:47:30;;;;;;;34.55;30.85;;;;;;;16.18;71.45;101414.59;5022358;28;20072;-76
2023/05/15 10:49:57;;;;;;;32.80;29.40;;;;;;;16.09;72.63;101406.63;5019486;28;20060;-76
2023/05/15 10:52:23;;;;;;;34.40;30.55;;;;;;;16.23;72.64;101416.84;5023012;28;20237;-75
2023/05/15 10:54:49;;;;;;;33.03;29.60;;;;;;;16.17;72.52;101412.91;5026986;28;20041;-76
2023/05/15 10:57:15;;;;;;;35.33;31.15;;;;;;;16.19;73.16;101408.31;5027680;28;20025;-76
2023/05/15 10:59:42;;;;;;;33.58;30.13;;;;;;;16.20;73.70;101409.16;5029825;28;20179;-76
2023/05/15 11:02:22;;;;;;;34.10;30.80;;;;;;;16.18;73.90;101411.94;5027259;28;20493;-75
2023/05/15 11:04:53;;;;;;;36.35;32.58;;;;;;;16.05;73.80;101408.69;5028078;28;21096;-76
2023/05/15 11:07:20;;;;;;;37.90;32.75;;;;;;;15.85;74.61;101414.91;5008109;28;20021;-76
2023/05/15 11:09:45;;;;;;;38.28;33.85;;;;;;;15.78;73.33;101408.44;5026542;28;20045;-74
2023/05/15 11:12:10;;;;;;;40.28;36.15;;;;;;;15.62;73.87;101407.13;5028792;28;20021;-74
2023/05/15 11:14:56;;;;;;;39.78;35.80;;;;;;;15.57;75.39;101419.88;5010957;28;20543;-74
2023/05/15 11:17:22;;;;;;;39.30;35.20;;;;;;;15.51;76.55;101406.31;5019762;28;20033;-74
2023/05/15 11:19:48;;;;;;;40.08;36.17;;;;;;;15.50;76.79;101410.78;4995209;28;20050;-75
2023/05/15 11:22:13;;;;;;;42.58;37.67;;;;;;;15.65;77.51;101403.38;5022630;28;20049;-76
2023/05/15 11:25:10;;;;;;;45.30;37.70;;;;;;;15.76;76.49;101405.09;5013537;28;20034;-76
2023/05/15 11:27:37;;;;;;;42.70;38.05;;;;;;;15.83;76.57;101399.09;5027225;28;20033;-76
2023/05/15 11:30:05;;;;;;;43.60;38.78;;;;;;;15.78;76.13;101403.16;5030681;28;20029;-76
2023/05/15 11:32:40;;;;;;;43.03;37.90;;;;;;;15.88;77.32;101399.53;5029233;28;20083;-75
2023/05/15 11:35:17;;;;;;;42.03;37.45;;;;;;;15.76;77.08;101400.63;5030607;28;20029;-75
2023/05/15 11:37:46;;;;;;;40.70;36.58;;;;;;;15.69;77.71;101404.78;5026060;28;20052;-75
2023/05/15 11:40:42;;;;;;;38.75;34.85;;;;;;;15.82;77.50;101393.94;5030516;28;20104;-74
2023/05/15 11:43:24;;;;;;;39.33;35.33;;;;;;;15.71;77.42;101402.00;5019066;28;20065;-74
2023/05/15 11:45:54;;;;;;;38.03;34.05;;;;;;;15.64;78.06;101399.88;5012256;28;20064;-74
2023/05/15 11:48:20;;;;;;;41.33;35.85;;;;;;;15.57;77.40;101398.69;5010878;28;20048;-75
2023/05/15 11:50:46;;;;;;;39.15;35.03;;;;;;;15.52;78.26;101403.53;5031659;28;20451;-75
2023/05/15 11:53:12;;;;;;;40.55;36.42;;;;;;;15.53;78.23;101399.06;5011649;28;20029;-75
2023/05/15 11:55:39;;;;;;;39.60;35.50;;;;;;;15.56;79.36;101402.31;5026940;28;20044;-75
2023/05/15 11:58:16;;;;;;;47.70;39.33;;;;;;;15.51;80.05;101404.50;5030747;28;20025;-74
2023/05/15 12:00:43;;;;;;;47.63;42.60;;;;;;;15.40;79.96;101409.91;5025637;28;20030;-75
2023/05/15 12:03:19;;;;;;;47.85;42.63;;;;;;;15.34;80.09;101411.28;5026064;28;20026;-75
2023/05/15 12:05:44;;;;;;;52.10;44.65;;;;;;;15.21;81.14;101405.34;5030376;28;20048;-75
2023/05/15 12:08:13;;;;;;;57.22;46.78;;;;;;;15.20;82.00;101405.44;5028989;28;20025;-74
2023/05/15 12:10:43;;;;;;;56.53;50.58;;;;;;;15.12;82.40;101400.78;5029482;28;20504;-75
2023/05/15 12:13:13;;;;;;;58.30;52.15;;;;;;;15.12;82.67;101413.19;5007815;28;20048;-75
2023/05/15 12:15:44;;;;;;;58.85;51.15;;;;;;;15.04;83.58;101408.53;5028382;28;20129;-75
2023/05/15 12:18:10;;;;;;;57.05;50.58;;;;;;;15.03;84.33;101406.88;5030567;28;20444;-74
2023/05/15 12:20:38;;;;;;;59.05;51.45;;;;;;;15.03;84.34;101407.69;5029886;28;20033;-75
2023/05/15 12:23:06;;;;;;;59.63;52.00;;;;;;;14.95;83.52;101412.81;5029657;28;20026;-74
2023/05/15 12:25:33;;;;;;;58.03;51.83;;;;;;;14.84;84.56;101399.63;5030182;28;20079;-75
2023/05/15 12:28:03;;;;;;;57.33;50.33;;;;;;;14.87;85.08;101399.38;5028793;28;20021;-74
2023/05/15 12:30:30;;;;;;;57.30;50.92;;;;;;;14.93;84.65;101396.19;5023336;28;20022;-74
2023/05/15 12:33:04;;;;;;;57.28;50.85;;;;;;;15.04;84.86;101398.78;5020834;28;20441;-74
2023/05/15 12:35:36;;;;;;;57.08;49.90;;;;;;;15.12;84.57;101400.78;5028188;28;20060;-74
2023/05/15 12:38:05;;;;;;;57.58;50.20;;;;;;;15.14;84.19;101398.00;5028354;28;20033;-74
2023/05/15 12:40:35;;;;;;;59.05;50.17;;;;;;;15.08;85.27;101390.56;5018121;28;20029;-74
2023/05/15 12:43:08;;;;;;;62.45;51.97;;;;;;;15.12;85.52;101390.19;5030099;28;20045;-74
2023/05/15 12:45:36;;;;;;;64.25;50.25;;;;;;;15.12;85.25;101392.00;5023888;28;20490;-75
2023/05/15 12:48:06;;;;;;;56.88;49.67;;;;;;;15.15;85.09;101389.06;5007405;28;20036;-75
2023/05/15 12:50:34;;;;;;;60.88;50.40;;;;;;;15.30;85.80;101393.09;5030257;28;20437;-75
2023/05/15 12:53:04;;;;;;;61.03;51.13;;;;;;;15.45;84.92;101394.44;5029109;28;20075;-75
2023/05/15 12:55:34;;;;;;;66.95;50.97;;;;;;;15.62;84.21;101395.69;5028360;28;20057;-75
2023/05/15 12:58:05;;;;;;;59.63;50.03;;;;;;;15.97;82.84;101392.59;5024529;28;20025;-74
2023/05/15 13:00:35;;;;;;;56.78;48.63;;;;;;;15.98;81.76;101394.25;5022475;28;20044;-75
2023/05/15 13:03:02;;;;;;;61.65;49.78;;;;;;;16.05;81.99;101390.13;5024727;28;20033;-75
2023/05/15 13:05:31;;;;;;;52.83;47.08;;;;;;;16.18;80.63;101393.34;5027092;28;20058;-75
2023/05/15 13:08:05;;;;;;;55.95;47.88;;;;;;;16.15;82.09;101390.97;5027843;28;20429;-75
2023/05/15 13:10:32;;;;;;;54.30;47.95;;;;;;;16.20;80.96;101391.41;5024588;28;20043;-75
2023/05/15 13:12:57;;;;;;;52.60;46.03;;;;;;;16.34;81.03;101391.97;5029354;28;20022;-74
2023/05/15 13:15:34;;;;;;;53.17;47.17;;;;;;;16.38;79.45;101386.25;5011283;28;20037;-74
2023/05/15 13:18:06;;;;;;;57.28;47.00;;;;;;;16.60;79.70;101385.16;5029778;28;20493;-75
2023/05/15 13:20:34;;;;;;;49.75;43.00;;;;;;;16.79;77.79;101389.66;5014916;28;20027;-75
2023/05/15 13:23:02;;;;;;;48.58;41.15;;;;;;;16.92;78.24;101387.56;5028650;28;20022;-75
2023/05/15 13:25:28;;;;;;;46.13;41.08;;;;;;;16.96;78.20;101385.47;5029527;28;20530;-75
2023/05/15 13:27:56;;;;;;;44.95;38.47;;;;;;;16.98;77.27;101391.50;5019831;28;20026;-75
2023/05/15 13:30:21;;;;;;;41.03;36.55;;;;;;;16.94;75.45;101388.28;5026476;28;20025;-75
2023/05/15 13:32:46;;;;;;;43.65;37.83;;;;;;;16.72;75.99;101388.56;5028539;28;20099;-75
2023/05/15 13:35:12;;;;;;;43.88;37.55;;;;;;;16.47;77.35;101389.91;5022848;28;20032;-75
2023/05/15 13:37:37;;;;;;;41.22;36.40;;;;;;;16.24;78.82;101389.31;5018886;28;20609;-75
2023/05/15 13:40:08;;;;;;;43.20;37.60;;;;;;;16.13;79.40;101392.94;5027711;28;20029;-75
2023/05/15 13:42:43;;;;;;;45.58;38.20;;;;;;;16.07;80.26;101395.28;5029597;28;20549;-75
2023/05/15 13:45:13;;;;;;;46.55;37.92;;;;;;;15.96;81.45;101390.91;5028285;28;20382;-75
2023/05/15 13:47:39;;;;;;;42.55;35.92;;;;;;;15.92;81.56;101395.66;5024814;28;20518;-75
2023/05/15 13:50:10;;;;;;;40.75;34.40;;;;;;;15.82;81.80;101393.94;5028940;28;20034;-75
2023/05/15 13:52:37;;;;;;;38.53;33.88;;;;;;;15.79;82.25;101394.22;5024260;28;20037;-75
2023/05/15 13:55:04;;;;;;;39.55;32.88;;;;;;;15.59;81.50;101388.81;5027901;28;20053;-75
2023/05/15 13:57:30;;;;;;;36.47;32.20;;;;;;;15.52;82.03;101392.94;5021281;28;20502;-75
2023/05/15 13:59:56;;;;;;;46.65;34.80;;;;;;;15.50;82.80;101389.56;5023934;28;20033;-75
2023/05/15 14:02:25;;;;;;;40.15;33.53;;;;;;;15.35;83.97;101396.19;5021180;28;20029;-75
2023/05/15 14:04:51;;;;;;;34.53;28.05;;;;;;;15.38;82.74;101395.94;5022173;28;20125;-74
2023/05/15 14:07:18;;;;;;;29.33;26.30;;;;;;;15.24;82.31;101402.41;5010747;28;20022;-74
2023/05/15 14:09:43;;;;;;;26.02;22.42;;;;;;;15.14;82.12;101398.84;5017602;28;20505;-75
2023/05/15 14:12:10;;;;;;;27.70;21.88;;;;;;;15.19;82.67;101391.34;5025446;28;20033;-74
2023/05/15 14:14:36;;;;;;;20.73;16.77;;;;;;;15.13;81.76;101391.84;5031636;28;20036;-74
2023/05/15 14:17:02;;;;;;;20.95;16.98;;;;;;;15.12;82.58;101387.53;5030695;28;20029;-75
2023/05/15 14:19:27;;;;;;;20.02;14.30;;;;;;;15.13;81.93;101385.72;5032088;28;20067;-74
2023/05/15 14:21:53;;;;;;;17.27;12.32;;;;;;;15.01;82.36;101390.25;5028438;28;20116;-76
2023/05/15 14:24:18;;;;;;;14.13;11.57;;;;;;;15.06;83.32;101388.06;5030467;28;20456;-76
2023/05/15 14:26:44;;;;;;;15.02;10.20;;;;;;;15.02;82.98;101390.13;5027672;28;20052;-75
2023/05/15 14:29:13;;;;;;;22.77;10.00;;;;;;;15.07;82.82;101397.69;5025418;28;20017;-75
2023/05/15 14:31:43;;;;;;;15.13;9.25;;;;;;;15.08;83.21;101398.53;5020922;28;20128;-75
2023/05/15 14:34:09;;;;;;;11.35;8.45;;;;;;;15.22;82.99;101392.91;5002705;28;20026;-75
2023/05/15 14:36:38;;;;;;;13.00;9.05;;;;;;;15.31;82.93;101392.13;5025743;28;20443;-74
2023/05/15 14:39:09;;;;;;;13.82;9.35;;;;;;;15.44;83.51;101394.56;5030895;28;20025;-76
2023/05/15 14:41:34;;;;;;;19.40;9.23;;;;;;;15.42;81.93;101397.34;5021638;28;20394;-74
2023/05/15 14:44:00;;;;;;;15.93;9.48;;;;;;;15.33;81.71;101392.84;5017435;28;20036;-74
2023/05/15 14:46:30;;;;;;;12.38;8.63;;;;;;;15.32;81.89;101404.41;5030469;28;20025;-74
2023/05/15 14:48:58;;;;;;;10.48;7.88;;;;;;;15.25;81.79;101400.59;5027253;28;20565;-74
2023/05/15 14:51:23;;;;;;;14.07;7.43;;;;;;;15.19;81.25;101401.94;5011941;28;20381;-74
2023/05/15 14:53:48;;;;;;;13.20;7.70;;;;;;;15.33;81.56;101398.97;5012774;28;20022;-74
2023/05/15 14:56:14;;;;;;;13.20;7.10;;;;;;;15.28;80.78;101403.84;5014921;28;20056;-74
2023/05/15 14:58:39;;;;;;;12.98;7.28;;;;;;;15.26;80.98;101397.00;5010467;28;20478;-74
2023/05/15 15:01:07;;;;;;;16.30;7.53;;;;;;;15.36;81.58;101404.03;5011709;28;20017;-75
2023/05/15 15:03:32;;;;;;;16.20;7.22;;;;;;;15.43;81.42;101408.78;5012324;28;20049;-75
2023/05/15 15:06:01;;;;;;;17.60;7.70;;;;;;;15.25;79.54;101405.91;5008033;28;20072;-75
2023/05/15 15:08:30;;;;;;;14.93;7.68;;;;;;;15.22;80.36;101414.97;5011314;28;20038;-75
2023/05/15 15:10:56;;;;;;;14.02;7.32;;;;;;;15.21;80.24;101425.66;5011656;28;20021;-75
2023/05/15 15:13:22;;;;;;;14.27;7.00;;;;;;;15.09;80.03;101413.44;5013065;28;20104;-75
2023/05/15 15:15:52;;;;;;;14.80;6.47;;;;;;;14.93;79.71;101428.00;5008575;28;20029;-75
2023/05/15 15:18:19;;;;;;;16.02;7.32;;;;;;;14.91;80.56;101424.63;5008135;28;20037;-75
2023/05/15 15:20:57;;;;;;;12.40;6.47;;;;;;;14.82;80.67;101425.41;5005848;28;20028;-75
2023/05/15 15:23:23;;;;;;;13.65;6.70;;;;;;;14.90;81.47;101433.56;5009789;28;20022;-75
2023/05/15 15:25:48;;;;;;;13.27;6.63;;;;;;;14.83;80.63;101434.19;5015220;28;20079;-75
2023/05/15 15:28:23;;;;;;;14.25;6.53;;;;;;;14.80;81.18;101431.75;5012818;28;20026;-75
2023/05/15 15:30:51;;;;;;;14.38;5.68;;;;;;;14.78;81.37;101439.84;5008437;28;20109;-75